Time;durP1;ratioP1;P1;durP2;ratioP2;P2;SDS_P1;SDS_P2;PMS_P1;PMS_P2;Temp;Humidity;BMP_temperature;BMP_pressure;BME280_temperature;BME280_humidity;BME280_pressure;Samples;Min_cycle;Max_cycle;Signal;HPM_P1;HPM_P2
2021/07/12 00:02:21;;;;;;;3.67;1.30;;;17.60;99.90;;;;;;4986247;28;20146;-77
2021/07/12 00:04:50;;;;;;;5.60;1.67;;;17.60;99.90;;;;;;4985864;28;20093;-77
2021/07/12 00:07:17;;;;;;;3.28;1.58;;;17.60;99.90;;;;;;4987038;28;20138;-78
2021/07/12 00:09:46;;;;;;;3.63;1.60;;;17.60;99.90;;;;;;4988425;28;20129;-78
2021/07/12 00:12:13;;;;;;;4.30;1.70;;;17.60;99.90;;;;;;4981812;28;20133;-78
2021/07/12 00:14:40;;;;;;;6.20;1.67;;;17.60;99.90;;;;;;4988716;28;20054;-78
2021/07/12 00:17:07;;;;;;;3.33;1.48;;;17.50;99.90;;;;;;4987407;28;20054;-78
2021/07/12 00:19:34;;;;;;;3.10;1.50;;;17.40;99.90;;;;;;4985507;28;20471;-77
2021/07/12 00:22:03;;;;;;;3.58;1.70;;;17.30;99.90;;;;;;4984794;28;20134;-78
2021/07/12 00:24:30;;;;;;;5.20;1.90;;;17.30;99.90;;;;;;4992569;28;20137;-77
2021/07/12 00:26:57;;;;;;;4.28;1.33;;;17.20;99.90;;;;;;4984302;28;20138;-78
2021/07/12 00:29:24;;;;;;;3.63;1.63;;;17.10;99.90;;;;;;4991332;28;20042;-78
2021/07/12 00:31:51;;;;;;;2.95;1.42;;;17.10;99.90;;;;;;4986624;28;20050;-78
2021/07/12 00:34:18;;;;;;;3.10;1.45;;;17.00;99.90;;;;;;4986684;28;20110;-78
2021/07/12 00:36:45;;;;;;;3.80;1.67;;;17.00;99.90;;;;;;4984708;28;20051;-78
2021/07/12 00:39:13;;;;;;;3.65;1.70;;;16.90;99.90;;;;;;4985772;28;20043;-78
2021/07/12 00:41:40;;;;;;;3.20;1.50;;;16.80;99.90;;;;;;4978501;28;20137;-78
2021/07/12 00:44:08;;;;;;;3.05;1.20;;;16.70;99.90;;;;;;4984753;28;20061;-78
2021/07/12 00:46:35;;;;;;;4.72;1.30;;;16.60;99.90;;;;;;4981558;28;20476;-78
2021/07/12 00:49:03;;;;;;;3.28;1.30;;;16.70;99.90;;;;;;4988012;28;20129;-78
2021/07/12 00:51:31;;;;;;;2.88;1.40;;;16.60;99.90;;;;;;4993831;28;20134;-78
2021/07/12 00:53:58;;;;;;;3.55;1.58;;;16.70;99.90;;;;;;4987960;28;20145;-78
2021/07/12 00:56:26;;;;;;;3.75;1.40;;;16.60;99.90;;;;;;4986616;28;20046;-78
2021/07/12 00:58:53;;;;;;;3.60;1.50;;;16.70;99.90;;;;;;4996260;28;20053;-78
2021/07/12 01:01:20;;;;;;;4.38;1.70;;;16.70;99.90;;;;;;4994652;28;20129;-79
2021/07/12 01:03:48;;;;;;;3.45;1.80;;;16.70;99.90;;;;;;4986609;28;20050;-78
2021/07/12 01:06:15;;;;;;;3.25;1.50;;;16.70;99.90;;;;;;4985623;28;20050;-79
2021/07/12 01:08:43;;;;;;;5.03;1.40;;;16.60;99.90;;;;;;4989346;28;20131;-78
2021/07/12 01:11:15;;;;;;;4.07;1.70;;;16.60;99.90;;;;;;4992833;28;20058;-78
2021/07/12 01:13:51;;;;;;;4.78;1.70;;;16.50;99.90;;;;;;4992255;28;20074;-78
2021/07/12 01:16:32;;;;;;;4.85;1.58;;;16.40;99.90;;;;;;4996281;28;20134;-78
2021/07/12 01:19:14;;;;;;;4.60;1.60;;;16.20;99.90;;;;;;4994760;28;20050;-78
2021/07/12 01:22:15;;;;;;;3.78;1.70;;;16.10;99.90;;;;;;4986701;28;20137;-78
2021/07/12 01:26:03;;;;;;;4.82;1.70;;;16.00;99.90;;;;;;4981579;28;20102;-78
2021/07/12 01:29:03;;;;;;;3.47;1.83;;;16.00;99.90;;;;;;4916268;29;20127;-76
2021/07/12 01:32:30;;;;;;;3.25;1.63;;;15.90;99.90;;;;;;4916147;29;20127;-77
2021/07/12 01:35:05;;;;;;;2.83;1.48;;;15.90;99.90;;;;;;4963843;28;20125;-78
2021/07/12 01:37:43;;;;;;;4.40;1.88;;;16.00;99.90;;;;;;4980157;28;20052;-79
2021/07/12 01:40:16;;;;;;;3.05;1.65;;;16.00;99.90;;;;;;4986509;28;20475;-78
2021/07/12 01:42:52;;;;;;;5.53;1.70;;;16.00;99.90;;;;;;4988811;28;20112;-78
2021/07/12 01:45:22;;;;;;;5.55;1.85;;;16.10;99.90;;;;;;4984472;28;20043;-77
2021/07/12 01:48:00;;;;;;;3.60;1.60;;;16.10;99.90;;;;;;4984479;28;20133;-77
2021/07/12 01:50:35;;;;;;;3.50;1.50;;;16.10;99.90;;;;;;4984998;28;20050;-77
2021/07/12 01:53:14;;;;;;;2.90;1.40;;;16.10;99.90;;;;;;4983736;28;20129;-76
2021/07/12 01:55:55;;;;;;;3.92;1.85;;;16.20;99.90;;;;;;4991955;28;20555;-79
2021/07/12 01:58:31;;;;;;;4.25;2.03;;;16.20;99.90;;;;;;4980360;28;20058;-78
2021/07/12 02:01:01;;;;;;;3.45;1.75;;;16.20;99.90;;;;;;4986543;28;20054;-78
2021/07/12 02:03:29;;;;;;;2.88;1.60;;;16.20;99.90;;;;;;4983972;28;20464;-78
2021/07/12 02:06:03;;;;;;;4.13;1.70;;;16.10;99.90;;;;;;4983143;28;20047;-77
2021/07/12 02:08:32;;;;;;;4.93;1.60;;;16.10;99.90;;;;;;4990639;28;20053;-78
2021/07/12 02:11:01;;;;;;;4.35;1.75;;;16.10;99.90;;;;;;4983223;28;20137;-76
2021/07/12 02:13:29;;;;;;;4.03;1.73;;;16.10;99.90;;;;;;4984810;28;20469;-78
2021/07/12 02:15:58;;;;;;;3.13;1.50;;;16.00;99.90;;;;;;4983000;28;20551;-78
2021/07/12 02:18:27;;;;;;;2.83;1.42;;;16.00;99.90;;;;;;4984078;28;20077;-78
2021/07/12 02:20:58;;;;;;;4.25;1.83;;;15.90;99.90;;;;;;4982509;28;20085;-78
2021/07/12 02:23:27;;;;;;;6.80;2.08;;;15.80;99.90;;;;;;4983283;28;20565;-79
2021/07/12 02:25:55;;;;;;;4.38;1.60;;;15.70;99.90;;;;;;4982889;28;20059;-76
2021/07/12 02:28:23;;;;;;;2.95;1.60;;;15.50;99.90;;;;;;4984128;28;20050;-77
2021/07/12 02:30:52;;;;;;;2.88;1.40;;;15.50;99.90;;;;;;4982968;28;20051;-78
2021/07/12 02:33:22;;;;;;;4.00;1.70;;;15.40;99.90;;;;;;4980687;28;20514;-76
2021/07/12 02:35:51;;;;;;;3.88;1.80;;;15.40;99.90;;;;;;4985786;28;20046;-78
2021/07/12 02:38:20;;;;;;;2.72;1.50;;;15.40;99.90;;;;;;4983849;28;20141;-78
2021/07/12 02:40:48;;;;;;;3.72;1.85;;;15.40;99.90;;;;;;4981666;28;20134;-79
2021/07/12 02:43:16;;;;;;;4.32;1.70;;;15.40;99.90;;;;;;4987946;28;20054;-77
2021/07/12 02:45:44;;;;;;;5.63;1.65;;;15.40;99.90;;;;;;4982548;28;20496;-77
2021/07/12 02:48:11;;;;;;;3.28;1.70;;;15.50;99.90;;;;;;4983175;28;20082;-77
2021/07/12 02:50:41;;;;;;;3.25;1.70;;;15.40;99.90;;;;;;4985673;28;20133;-78
2021/07/12 02:53:12;;;;;;;3.75;1.38;;;15.40;99.90;;;;;;4985390;28;20054;-77
2021/07/12 02:55:43;;;;;;;3.50;1.70;;;15.40;99.90;;;;;;4982614;28;20076;-78
2021/07/12 02:58:10;;;;;;;3.40;1.65;;;15.50;99.90;;;;;;4982895;28;20115;-78
2021/07/12 03:00:38;;;;;;;3.72;1.67;;;15.50;99.90;;;;;;4985848;28;20042;-79
2021/07/12 03:03:05;;;;;;;3.88;1.75;;;15.50;99.90;;;;;;4979960;28;20054;-79
2021/07/12 03:05:32;;;;;;;3.55;1.88;;;15.60;99.90;;;;;;4980642;28;20133;-76
2021/07/12 03:08:06;;;;;;;4.32;1.80;;;15.70;99.90;;;;;;4989562;28;20469;-77
2021/07/12 03:10:39;;;;;;;4.13;2.20;;;15.70;99.90;;;;;;4980511;28;20043;-78
2021/07/12 03:13:11;;;;;;;4.07;1.90;;;15.60;99.90;;;;;;4981757;28;20584;-78
2021/07/12 03:15:42;;;;;;;3.63;1.75;;;15.50;99.90;;;;;;4980615;28;20059;-78
2021/07/12 03:18:17;;;;;;;3.63;1.80;;;15.40;99.90;;;;;;4980394;28;20050;-77
2021/07/12 03:20:46;;;;;;;2.97;1.45;;;15.30;99.90;;;;;;4983279;28;20077;-77
2021/07/12 03:23:15;;;;;;;5.22;1.63;;;15.30;99.90;;;;;;4981978;28;20050;-78
2021/07/12 03:25:48;;;;;;;4.28;1.77;;;15.30;99.90;;;;;;4979147;28;20545;-78
2021/07/12 03:28:19;;;;;;;3.80;1.73;;;15.30;99.90;;;;;;4981559;28;20137;-79
2021/07/12 03:30:48;;;;;;;3.63;1.85;;;15.30;99.90;;;;;;4977493;28;20133;-79
2021/07/12 03:33:16;;;;;;;3.90;1.70;;;15.30;99.90;;;;;;4981593;28;20086;-78
2021/07/12 03:35:45;;;;;;;3.63;1.42;;;15.30;99.90;;;;;;4982695;28;20129;-78
2021/07/12 03:38:14;;;;;;;5.05;1.98;;;15.30;99.90;;;;;;4981599;28;20050;-78
2021/07/12 03:40:42;;;;;;;3.55;1.75;;;15.30;99.90;;;;;;4979718;28;20066;-78
2021/07/12 03:43:10;;;;;;;5.40;1.65;;;15.30;99.90;;;;;;4980568;28;20058;-78
2021/07/12 03:45:40;;;;;;;3.38;1.90;;;15.30;99.90;;;;;;4979642;28;20126;-79
2021/07/12 03:48:08;;;;;;;3.30;1.48;;;15.30;99.90;;;;;;4980554;28;20484;-77
2021/07/12 03:50:36;;;;;;;3.63;1.85;;;15.30;99.90;;;;;;4979544;28;20126;-78
2021/07/12 03:53:04;;;;;;;3.05;1.65;;;15.30;99.90;;;;;;4979395;28;20134;-79
2021/07/12 03:55:33;;;;;;;3.25;1.50;;;15.30;99.90;;;;;;4982647;28;20049;-76
2021/07/12 03:58:03;;;;;;;3.00;1.50;;;15.40;99.90;;;;;;4982569;28;20584;-78
2021/07/12 04:00:30;;;;;;;4.72;1.50;;;15.40;99.90;;;;;;4987248;28;20042;-78
2021/07/12 04:02:59;;;;;;;3.08;1.40;;;15.40;99.90;;;;;;4979434;28;20081;-78
2021/07/12 04:05:27;;;;;;;3.60;1.60;;;15.40;99.90;;;;;;4985711;28;20129;-78
2021/07/12 04:07:56;;;;;;;3.20;1.55;;;15.40;99.90;;;;;;4979829;28;20055;-78
2021/07/12 04:10:23;;;;;;;4.97;1.90;;;15.40;99.90;;;;;;4998868;28;20141;-78
2021/07/12 04:12:51;;;;;;;3.47;1.60;;;15.50;99.90;;;;;;4993212;28;20400;-79
2021/07/12 04:15:18;;;;;;;4.97;1.63;;;15.40;99.90;;;;;;4990622;28;20050;-78
2021/07/12 04:17:46;;;;;;;4.70;1.70;;;15.40;99.90;;;;;;4982990;28;20053;-77
2021/07/12 04:20:16;;;;;;;4.78;1.90;;;15.30;99.90;;;;;;4981073;28;20070;-80
2021/07/12 04:22:44;;;;;;;3.78;1.67;;;15.20;99.90;;;;;;4988118;28;20050;-79
2021/07/12 04:25:13;;;;;;;2.95;1.55;;;15.10;99.90;;;;;;4994940;28;20077;-78
2021/07/12 04:27:42;;;;;;;2.97;1.42;;;15.10;99.90;;;;;;5003962;28;20077;-78
2021/07/12 04:30:11;;;;;;;3.85;1.67;;;15.10;99.90;;;;;;4997558;28;20082;-78
2021/07/12 04:32:38;;;;;;;3.47;1.75;;;15.10;99.90;;;;;;5014231;28;20076;-78
2021/07/12 04:35:06;;;;;;;5.10;1.73;;;15.20;99.90;;;;;;5001099;28;20125;-78
2021/07/12 04:37:35;;;;;;;3.08;1.60;;;15.20;99.90;;;;;;4994434;28;20504;-76
2021/07/12 04:40:02;;;;;;;3.45;1.50;;;15.30;99.90;;;;;;4994575;28;20089;-78
2021/07/12 04:42:30;;;;;;;3.35;1.90;;;15.30;99.90;;;;;;4994362;28;20507;-77
2021/07/12 04:44:57;;;;;;;4.97;1.88;;;15.40;99.90;;;;;;4994433;28;20137;-78
2021/07/12 04:47:25;;;;;;;3.22;1.65;;;15.50;99.90;;;;;;4994213;28;20140;-78
2021/07/12 04:49:52;;;;;;;4.95;2.03;;;15.50;99.90;;;;;;4993944;28;20046;-78
2021/07/12 04:52:19;;;;;;;3.78;1.80;;;15.50;99.90;;;;;;4994481;28;20177;-78
2021/07/12 04:54:47;;;;;;;3.40;1.70;;;15.40;99.90;;;;;;4994039;28;20100;-77
2021/07/12 04:57:14;;;;;;;4.95;1.95;;;15.40;99.90;;;;;;4994288;28;20380;-77
2021/07/12 04:59:42;;;;;;;6.18;2.20;;;15.30;99.90;;;;;;4993912;28;20125;-77
2021/07/12 05:02:12;;;;;;;3.42;2.00;;;15.20;99.90;;;;;;4995293;28;20073;-78
2021/07/12 05:04:41;;;;;;;4.05;1.92;;;15.20;99.90;;;;;;4995869;28;20060;-78
2021/07/12 05:07:10;;;;;;;5.70;1.90;;;15.10;99.90;;;;;;5000073;28;20074;-78
2021/07/12 05:09:37;;;;;;;3.97;2.20;;;15.10;99.90;;;;;;5001206;28;20042;-78
2021/07/12 05:12:09;;;;;;;4.53;2.25;;;15.20;99.90;;;;;;4995955;28;20042;-76
2021/07/12 05:14:37;;;;;;;4.60;2.03;;;15.20;99.90;;;;;;4995938;28;20137;-78
2021/07/12 05:17:05;;;;;;;4.30;1.80;;;15.20;99.90;;;;;;4996012;28;20058;-78
2021/07/12 05:19:33;;;;;;;3.72;1.77;;;15.30;99.90;;;;;;4995623;28;20133;-78
2021/07/12 05:22:00;;;;;;;3.60;1.92;;;15.40;99.90;;;;;;4995947;28;20145;-78
2021/07/12 05:24:27;;;;;;;3.90;2.17;;;15.50;99.90;;;;;;4995907;28;20074;-78
2021/07/12 05:26:54;;;;;;;4.68;2.50;;;15.60;99.90;;;;;;4995681;28;20061;-78
2021/07/12 05:29:23;;;;;;;4.35;2.42;;;15.60;99.90;;;;;;4995709;28;20590;-79
2021/07/12 05:31:50;;;;;;;5.50;2.50;;;15.70;99.90;;;;;;4995604;28;20136;-78
2021/07/12 05:34:17;;;;;;;4.90;2.40;;;15.70;99.90;;;;;;4995178;28;20403;-78
2021/07/12 05:36:45;;;;;;;6.50;2.50;;;15.70;99.90;;;;;;4995386;28;20469;-78
2021/07/12 05:39:13;;;;;;;5.22;2.53;;;15.70;99.90;;;;;;4995399;28;20085;-78
2021/07/12 05:41:40;;;;;;;3.88;2.30;;;15.70;99.90;;;;;;4995516;28;20416;-78
2021/07/12 05:44:07;;;;;;;4.35;2.75;;;15.80;99.90;;;;;;4995229;28;20085;-78
2021/07/12 05:46:36;;;;;;;4.00;2.50;;;15.80;99.90;;;;;;4995213;28;20129;-78
2021/07/12 05:49:03;;;;;;;4.00;2.42;;;15.80;99.90;;;;;;4995507;28;20070;-78
2021/07/12 05:51:30;;;;;;;3.90;2.40;;;15.90;99.90;;;;;;4995281;28;20050;-78
2021/07/12 05:53:57;;;;;;;3.60;2.17;;;15.90;99.90;;;;;;4995290;28;20411;-78
2021/07/12 05:56:24;;;;;;;4.50;2.35;;;15.90;99.90;;;;;;4995465;28;20169;-78
2021/07/12 05:58:51;;;;;;;4.15;2.28;;;16.00;99.90;;;;;;4995540;28;20141;-78
2021/07/12 06:01:18;;;;;;;4.45;2.10;;;16.10;99.90;;;;;;4994945;28;20149;-78
2021/07/12 06:03:46;;;;;;;4.25;2.40;;;16.10;99.90;;;;;;4995209;28;20560;-79
2021/07/12 06:06:13;;;;;;;4.97;2.10;;;16.20;99.90;;;;;;4995150;28;20586;-79
2021/07/12 06:08:40;;;;;;;3.90;2.05;;;16.30;99.90;;;;;;4994599;28;20136;-79
2021/07/12 06:11:09;;;;;;;4.28;2.35;;;16.40;99.90;;;;;;4994854;28;20133;-76
2021/07/12 06:13:37;;;;;;;3.75;2.00;;;16.50;99.90;;;;;;4994825;28;20050;-77
2021/07/12 06:16:05;;;;;;;6.20;2.20;;;16.60;99.90;;;;;;4994493;28;20052;-78
2021/07/12 06:18:32;;;;;;;3.70;2.28;;;16.70;99.90;;;;;;4994370;28;20051;-78
2021/07/12 06:21:00;;;;;;;4.50;2.35;;;16.70;99.90;;;;;;4994566;28;20400;-77
2021/07/12 06:23:27;;;;;;;5.30;2.00;;;16.80;99.90;;;;;;4994568;28;20129;-78
2021/07/12 06:25:54;;;;;;;4.35;1.95;;;16.90;99.90;;;;;;4994716;28;20563;-78
2021/07/12 06:28:21;;;;;;;4.70;2.20;;;17.00;99.90;;;;;;4994330;28;20046;-78
2021/07/12 06:30:48;;;;;;;4.18;1.98;;;17.00;99.90;;;;;;4994560;28;20078;-78
2021/07/12 06:33:15;;;;;;;4.47;2.05;;;17.10;99.90;;;;;;4994375;28;20129;-76
2021/07/12 06:35:42;;;;;;;3.95;1.70;;;17.20;99.90;;;;;;4994420;28;20074;-77
2021/07/12 06:38:12;;;;;;;3.72;1.77;;;17.20;99.90;;;;;;4993769;28;20575;-77
2021/07/12 06:40:39;;;;;;;4.40;2.00;;;17.40;99.90;;;;;;4994263;28;20137;-78
2021/07/12 06:43:06;;;;;;;3.22;1.63;;;17.40;99.90;;;;;;5004134;28;20141;-77
2021/07/12 06:45:33;;;;;;;3.38;1.85;;;17.50;99.90;;;;;;4993885;28;20050;-77
2021/07/12 06:48:00;;;;;;;3.92;1.88;;;17.60;99.90;;;;;;4994127;28;20046;-77
2021/07/12 06:50:27;;;;;;;3.95;1.70;;;17.70;99.90;;;;;;4994220;28;20125;-78
2021/07/12 06:52:54;;;;;;;3.72;1.60;;;17.70;99.90;;;;;;4994269;28;20050;-77
2021/07/12 06:55:22;;;;;;;3.85;1.70;;;17.80;99.90;;;;;;4994215;28;20060;-77
2021/07/12 06:57:49;;;;;;;4.55;1.80;;;17.90;99.90;;;;;;4993801;28;20133;-78
2021/07/12 07:00:17;;;;;;;3.45;1.80;;;18.00;99.90;;;;;;4994178;28;20246;-77
2021/07/12 07:02:44;;;;;;;4.35;1.92;;;18.10;99.90;;;;;;4994046;28;20133;-77
2021/07/12 07:05:12;;;;;;;3.70;1.80;;;18.20;99.90;;;;;;4994038;28;20085;-77
2021/07/12 07:07:39;;;;;;;3.70;1.90;;;18.30;99.90;;;;;;4994249;28;20137;-77
2021/07/12 07:10:09;;;;;;;5.40;2.00;;;18.40;99.90;;;;;;4993789;28;20145;-78
2021/07/12 07:12:38;;;;;;;3.75;2.20;;;18.40;99.90;;;;;;4994026;28;20497;-78
2021/07/12 07:15:07;;;;;;;4.57;1.95;;;18.50;99.90;;;;;;4993974;28;20046;-76
2021/07/12 07:17:34;;;;;;;3.70;1.70;;;18.50;99.90;;;;;;4993836;28;20137;-77
2021/07/12 07:20:01;;;;;;;3.05;1.80;;;18.60;99.90;;;;;;4994151;28;20137;-78
2021/07/12 07:22:28;;;;;;;3.38;1.90;;;18.60;99.90;;;;;;4994108;28;20547;-77
2021/07/12 07:24:55;;;;;;;3.70;1.90;;;18.60;99.90;;;;;;4993598;28;20130;-77
2021/07/12 07:27:22;;;;;;;5.22;2.33;;;18.70;99.90;;;;;;4993677;28;20125;-78
2021/07/12 07:29:51;;;;;;;4.90;2.25;;;18.80;99.90;;;;;;4993415;28;20145;-78
2021/07/12 07:32:18;;;;;;;3.70;2.15;;;18.80;99.90;;;;;;4993412;28;20470;-78
2021/07/12 07:34:45;;;;;;;3.55;1.70;;;18.90;99.90;;;;;;4993924;28;20082;-78
2021/07/12 07:37:12;;;;;;;4.93;1.88;;;18.90;99.90;;;;;;4993967;28;20050;-76
2021/07/12 07:39:40;;;;;;;4.85;1.98;;;19.00;99.90;;;;;;4995003;28;20050;-79
2021/07/12 07:42:08;;;;;;;4.40;2.30;;;19.10;99.90;;;;;;4994848;28;20133;-79
2021/07/12 07:44:35;;;;;;;4.78;2.10;;;19.20;99.90;;;;;;4994577;28;20129;-78
2021/07/12 07:47:04;;;;;;;5.35;2.30;;;19.20;99.90;;;;;;4995899;28;20129;-78
2021/07/12 07:49:32;;;;;;;3.60;2.00;;;19.30;99.90;;;;;;4994602;28;20478;-79
2021/07/12 07:51:59;;;;;;;4.85;2.00;;;19.30;99.90;;;;;;4993701;28;20082;-78
2021/07/12 07:54:26;;;;;;;5.32;2.50;;;19.40;99.90;;;;;;4993342;28;20129;-76
2021/07/12 07:56:53;;;;;;;4.85;2.40;;;19.40;99.90;;;;;;4994637;28;20046;-77
2021/07/12 07:59:21;;;;;;;4.25;2.33;;;19.50;99.90;;;;;;4997499;28;20054;-78
2021/07/12 08:01:48;;;;;;;5.00;2.03;;;19.50;99.90;;;;;;4997355;28;20145;-78
2021/07/12 08:04:16;;;;;;;3.92;1.67;;;19.60;99.90;;;;;;4997221;28;20456;-78
2021/07/12 08:06:43;;;;;;;2.50;1.33;;;19.70;99.90;;;;;;4997090;28;20081;-78
2021/07/12 08:09:10;;;;;;;2.95;1.50;;;19.70;99.90;;;;;;4996945;28;20125;-77
2021/07/12 08:11:38;;;;;;;3.92;1.75;;;19.80;99.90;;;;;;4997477;28;20050;-78
2021/07/12 08:14:05;;;;;;;2.92;1.42;;;19.90;99.90;;;;;;5006119;28;20141;-78
2021/07/12 08:16:32;;;;;;;2.70;1.30;;;20.00;99.90;;;;;;5007864;28;20077;-76
2021/07/12 08:18:59;;;;;;;2.80;1.27;;;20.10;99.90;;;;;;4999783;28;20050;-78
2021/07/12 08:21:27;;;;;;;3.92;1.40;;;20.20;99.90;;;;;;4996983;28;20148;-78
2021/07/12 08:23:55;;;;;;;3.50;1.30;;;20.30;99.90;;;;;;4999052;28;20043;-78
2021/07/12 08:26:22;;;;;;;3.70;1.42;;;20.40;99.90;;;;;;5007726;28;20089;-76
2021/07/12 08:28:49;;;;;;;2.20;1.17;;;20.50;99.90;;;;;;5008750;28;20484;-78
2021/07/12 08:31:18;;;;;;;2.92;1.40;;;20.60;99.90;;;;;;5005386;28;20138;-77
2021/07/12 08:33:45;;;;;;;2.53;1.20;;;20.70;99.90;;;;;;5007744;28;20086;-77
2021/07/12 08:36:16;;;;;;;3.42;1.20;;;20.80;99.70;;;;;;5007413;28;20085;-77
2021/07/12 08:38:45;;;;;;;2.15;1.10;;;20.90;99.40;;;;;;5003091;28;20106;-78
2021/07/12 08:41:12;;;;;;;2.10;1.00;;;21.00;98.90;;;;;;5006835;28;20097;-77
2021/07/12 08:43:41;;;;;;;1.90;0.90;;;21.20;98.70;;;;;;5005282;28;20138;-77
2021/07/12 08:46:08;;;;;;;1.70;0.80;;;21.40;99.90;;;;;;5007769;28;20058;-78
2021/07/12 08:48:35;;;;;;;1.75;0.82;;;21.30;97.40;;;;;;5002885;28;20125;-78
2021/07/12 08:51:02;;;;;;;1.85;0.90;;;21.50;96.70;;;;;;5004961;28;20070;-78
2021/07/12 08:53:29;;;;;;;2.33;1.17;;;21.60;96.20;;;;;;5006759;28;20046;-77
2021/07/12 08:55:58;;;;;;;2.47;1.17;;;21.70;95.20;;;;;;5005781;28;20129;-78
2021/07/12 08:58:27;;;;;;;2.83;1.00;;;21.80;94.90;;;;;;5006320;28;20142;-77
2021/07/12 09:01:00;;;;;;;2.17;0.95;;;22.00;94.60;;;;;;5006074;28;20069;-77
2021/07/12 09:03:30;;;;;;;2.50;1.20;;;22.10;94.50;;;;;;5006872;28;20460;-78
2021/07/12 09:06:10;;;;;;;2.15;1.10;;;22.20;94.20;;;;;;5006424;28;20304;-75
2021/07/12 09:08:51;;;;;;;2.00;0.90;;;22.30;93.50;;;;;;5006156;28;20050;-77
2021/07/12 09:11:33;;;;;;;1.63;0.80;;;22.40;93.60;;;;;;5006813;28;20467;-78
2021/07/12 09:14:03;;;;;;;2.15;0.95;;;22.50;93.50;;;;;;5006495;28;20095;-77
2021/07/12 09:16:35;;;;;;;1.85;0.88;;;22.60;93.30;;;;;;5005737;28;20054;-77
2021/07/12 09:19:13;;;;;;;2.50;1.00;;;22.70;93.00;;;;;;5004494;28;20141;-77
2021/07/12 09:21:42;;;;;;;1.90;0.90;;;22.80;92.70;;;;;;4997367;28;20134;-76
2021/07/12 09:24:35;;;;;;;2.45;1.00;;;22.80;92.30;;;;;;4996108;28;20073;-77
2021/07/12 09:27:13;;;;;;;2.20;1.10;;;22.90;91.90;;;;;;4996482;28;20129;-78
2021/07/12 09:29:44;;;;;;;2.15;1.00;;;23.00;91.50;;;;;;5005917;28;20133;-77
2021/07/12 09:32:16;;;;;;;1.77;0.90;;;23.00;91.40;;;;;;5005589;28;20129;-77
2021/07/12 09:34:46;;;;;;;1.73;0.90;;;23.10;91.40;;;;;;5005732;28;20071;-78
2021/07/12 09:37:16;;;;;;;1.98;0.98;;;23.10;91.20;;;;;;5002755;28;20050;-77
2021/07/12 09:39:44;;;;;;;2.95;0.93;;;23.20;91.10;;;;;;4998405;28;20114;-79
2021/07/12 09:42:15;;;;;;;1.90;0.90;;;23.20;90.90;;;;;;4997888;28;20054;-77
2021/07/12 09:44:45;;;;;;;1.92;0.80;;;23.30;90.70;;;;;;4996192;28;20088;-78
2021/07/12 09:47:16;;;;;;;3.10;0.90;;;23.40;90.70;;;;;;4995831;28;20488;-76
2021/07/12 09:49:45;;;;;;;2.10;0.90;;;23.50;90.60;;;;;;4995595;28;20419;-78
2021/07/12 09:52:14;;;;;;;2.15;0.90;;;23.70;91.20;;;;;;4995387;28;20389;-78
2021/07/12 09:54:43;;;;;;;1.80;0.90;;;23.70;92.90;;;;;;5005007;28;20137;-78
2021/07/12 09:57:16;;;;;;;2.42;1.10;;;23.90;91.80;;;;;;5005064;28;20111;-78
2021/07/12 09:59:58;;;;;;;1.98;0.95;;;24.00;93.90;;;;;;5004396;28;20134;-78
2021/07/12 10:02:27;;;;;;;2.17;1.00;;;23.90;92.20;;;;;;5002151;28;20050;-76
2021/07/12 10:05:01;;;;;;;2.15;1.00;;;24.90;90.30;;;;;;4995745;28;20129;-77
2021/07/12 10:07:29;;;;;;;3.15;1.40;;;24.10;90.00;;;;;;4995679;28;20423;-77
2021/07/12 10:09:58;;;;;;;2.50;1.20;;;24.20;89.60;;;;;;4995158;28;20461;-77
2021/07/12 10:12:27;;;;;;;2.38;1.30;;;24.20;89.30;;;;;;4994989;28;20133;-75
2021/07/12 10:14:55;;;;;;;1.92;1.00;;;24.30;88.30;;;;;;4992056;28;20074;-75
2021/07/12 10:17:24;;;;;;;2.08;1.10;;;24.30;88.20;;;;;;4991933;28;20050;-78
2021/07/12 10:19:51;;;;;;;1.98;1.00;;;24.40;87.40;;;;;;4991370;28;20058;-77
2021/07/12 10:22:25;;;;;;;2.22;0.90;;;24.50;86.10;;;;;;4991864;28;20046;-77
2021/07/12 10:24:52;;;;;;;2.38;0.98;;;24.50;85.80;;;;;;4992271;28;20050;-75
2021/07/12 10:27:23;;;;;;;2.17;1.00;;;24.60;86.30;;;;;;4993274;28;20131;-78
2021/07/12 10:29:53;;;;;;;2.35;1.10;;;24.70;87.00;;;;;;5000716;28;20080;-76
2021/07/12 10:32:22;;;;;;;2.45;0.93;;;24.80;86.60;;;;;;4993867;28;20129;-76
2021/07/12 10:34:52;;;;;;;2.58;1.00;;;24.90;86.40;;;;;;4992734;28;20125;-76
2021/07/12 10:37:29;;;;;;;2.15;1.10;;;24.90;86.30;;;;;;4991794;28;20487;-78
2021/07/12 10:40:18;;;;;;;2.42;1.10;;;25.00;85.40;;;;;;4991836;28;20053;-77
2021/07/12 10:42:56;;;;;;;3.17;1.40;;;25.10;82.70;;;;;;4992159;28;20058;-77
2021/07/12 10:45:42;;;;;;;3.67;1.27;;;25.20;82.70;;;;;;4991913;28;20129;-76
2021/07/12 10:48:16;;;;;;;2.75;1.30;;;25.20;82.70;;;;;;4991900;28;20057;-76
2021/07/12 10:50:55;;;;;;;2.40;1.30;;;25.30;82.10;;;;;;4995291;28;20053;-77
2021/07/12 10:53:37;;;;;;;2.85;1.30;;;25.30;81.70;;;;;;4992123;28;20365;-77
2021/07/12 10:56:17;;;;;;;3.58;1.35;;;25.40;80.60;;;;;;4991386;28;20061;-76
2021/07/12 10:58:49;;;;;;;2.38;1.10;;;25.50;79.90;;;;;;4991783;28;20116;-76
2021/07/12 11:01:43;;;;;;;2.05;1.00;;;25.50;79.80;;;;;;4991651;28;20141;-76
2021/07/12 11:04:45;;;;;;;3.88;1.20;;;25.50;80.10;;;;;;4991766;28;20042;-82
2021/07/12 11:07:15;;;;;;;1.85;0.88;;;25.60;79.60;;;;;;4987882;28;20054;-77
2021/07/12 11:09:55;;;;;;;2.30;1.00;;;25.60;78.50;;;;;;4991610;28;20149;-79
2021/07/12 11:12:40;;;;;;;1.83;1.00;;;25.60;79.00;;;;;;4991668;28;20069;-77
2021/07/12 11:15:34;;;;;;;2.28;1.10;;;25.70;79.40;;;;;;4991372;28;20050;-76
2021/07/12 11:18:04;;;;;;;;;;;25.80;77.90;;;;;;4990327;28;20042;-78
2021/07/12 11:20:47;;;;;;;2.88;0.98;;;25.80;77.70;;;;;;4991442;28;19925;-77
2021/07/12 11:23:57;;;;;;;2.22;1.05;;;25.90;76.60;;;;;;4990843;28;20088;-77
2021/07/12 11:26:51;;;;;;;2.13;1.08;;;25.90;73.80;;;;;;4991249;28;20042;-78
2021/07/12 11:29:37;;;;;;;2.45;1.05;;;25.90;73.30;;;;;;4991058;28;20057;-77
2021/07/12 11:32:12;;;;;;;2.70;0.93;;;25.90;73.40;;;;;;4993688;28;20141;-77
2021/07/12 11:34:53;;;;;;;2.25;1.13;;;25.90;74.00;;;;;;4995351;28;20484;-78
2021/07/12 11:37:24;;;;;;;2.65;1.10;;;25.90;73.60;;;;;;4995633;28;20042;-77
2021/07/12 11:39:54;;;;;;;1.67;0.90;;;25.90;72.60;;;;;;4995032;28;20488;-77
2021/07/12 11:42:29;;;;;;;2.28;0.98;;;26.00;73.50;;;;;;4987973;28;20062;-78
2021/07/12 11:45:02;;;;;;;;;;;26.10;73.90;;;;;;4990138;28;20051;-77
2021/07/12 11:47:32;;;;;;;2.20;1.00;;;26.20;73.00;;;;;;4975463;28;20005;-76
2021/07/12 11:50:05;;;;;;;2.42;1.27;;;26.30;72.60;;;;;;4975177;28;20053;-77
2021/07/12 11:52:32;;;;;;;2.42;1.20;;;26.30;71.20;;;;;;4975295;28;20057;-77
2021/07/12 11:55:08;;;;;;;2.40;0.90;;;26.30;71.40;;;;;;4975541;28;20125;-77
2021/07/12 11:57:37;;;;;;;2.25;1.10;;;26.40;71.40;;;;;;4974957;28;20141;-78
2021/07/12 12:00:09;;;;;;;2.17;1.00;;;26.40;71.70;;;;;;4976206;28;20043;-77
2021/07/12 12:02:37;;;;;;;2.00;0.93;;;26.50;71.90;;;;;;4975161;28;20055;-78
2021/07/12 12:05:09;;;;;;;2.42;1.20;;;26.50;71.10;;;;;;4974957;28;20540;-78
2021/07/12 12:07:39;;;;;;;2.20;1.10;;;26.60;70.60;;;;;;4975099;28;20125;-78
2021/07/12 12:10:10;;;;;;;2.75;1.23;;;26.60;70.20;;;;;;4975245;28;20092;-77
2021/07/12 12:12:44;;;;;;;2.72;1.30;;;26.70;71.20;;;;;;4974698;28;20765;-77
2021/07/12 12:15:16;;;;;;;2.60;1.00;;;26.70;71.00;;;;;;4977107;28;20150;-78
2021/07/12 12:17:51;;;;;;;2.47;1.10;;;26.80;70.60;;;;;;4976194;28;20130;-77
2021/07/12 12:20:28;;;;;;;2.10;1.10;;;26.90;69.90;;;;;;4981625;28;20089;-75
2021/07/12 12:23:09;;;;;;;2.22;1.20;;;27.00;69.10;;;;;;4974453;28;20046;-75
2021/07/12 12:25:44;;;;;;;2.30;0.90;;;27.00;69.80;;;;;;4974283;28;20502;-74
2021/07/12 12:28:29;;;;;;;2.47;1.00;;;26.90;70.10;;;;;;4976131;28;20070;-76
2021/07/12 12:31:01;;;;;;;1.48;0.93;;;26.90;69.70;;;;;;4975512;28;20058;-84
2021/07/12 12:33:31;;;;;;;1.90;1.00;;;27.00;70.30;;;;;;4974888;28;20492;-82
2021/07/12 12:36:03;;;;;;;2.20;1.00;;;27.00;70.90;;;;;;4974909;28;20138;-83
2021/07/12 12:38:30;;;;;;;2.00;0.90;;;27.00;70.60;;;;;;4974613;28;20141;-82
2021/07/12 12:41:06;;;;;;;2.00;0.98;;;27.00;70.40;;;;;;4974811;28;20092;-84
2021/07/12 12:43:35;;;;;;;2.30;1.08;;;26.90;69.70;;;;;;4973336;28;20066;-83
2021/07/12 12:46:05;;;;;;;1.70;0.90;;;26.90;70.70;;;;;;4975054;28;20054;-83
2021/07/12 12:48:42;;;;;;;2.20;1.00;;;26.90;70.10;;;;;;4975888;28;20105;-84
2021/07/12 12:51:31;;;;;;;2.08;0.90;;;26.90;69.90;;;;;;4988204;28;20133;-84
2021/07/12 12:54:08;;;;;;;2.30;0.93;;;26.90;71.10;;;;;;5000731;28;20042;-84
2021/07/12 12:56:38;;;;;;;2.13;0.90;;;26.90;71.70;;;;;;5003429;28;20555;-82
2021/07/12 12:59:08;;;;;;;1.48;0.80;;;27.00;72.40;;;;;;5004533;28;20046;-83
2021/07/12 13:01:41;;;;;;;2.00;0.93;;;27.10;72.60;;;;;;5004905;28;20070;-82
2021/07/12 13:04:11;;;;;;;1.90;0.90;;;27.20;71.70;;;;;;4996575;28;20476;-82
2021/07/12 13:06:49;;;;;;;3.15;1.20;;;27.30;71.80;;;;;;4985982;28;20162;-85
2021/07/12 13:09:26;;;;;;;2.13;1.02;;;27.30;69.80;;;;;;4985380;28;20089;-79